sensor_id;sensor_type;location;lat;lon;timestamp;pressure;altitude;pressure_sealevel;temperature;humidity
77469;BME280;66567;50.272;12.818;2023-03-14T00:00:10;94175;;;8.6;81.5
77469;BME280;66567;50.272;12.818;2023-03-14T00:02:05;94183;;;8.5;81.4
77469;BME280;66567;50.272;12.818;2023-03-14T00:04:05;94189;;;8.5;81.2
77469;BME280;66567;50.272;12.818;2023-03-14T00:06:06;94197;;;8.5;81.3
77469;BME280;66567;50.272;12.818;2023-03-14T00:08:05;94199;;;8.5;81.4
77469;BME280;66567;50.272;12.818;2023-03-14T00:10:07;94202;;;8.4;81.5
77469;BME280;66567;50.272;12.818;2023-03-14T00:12:08;94205;;;8.4;81.7
77469;BME280;66567;50.272;12.818;2023-03-14T00:14:05;94211;;;8.4;81.5
77469;BME280;66567;50.272;12.818;2023-03-14T00:16:07;94216;;;8.4;81.4
77469;BME280;66567;50.272;12.818;2023-03-14T00:18:05;94219;;;8.4;81.4
77469;BME280;66567;50.272;12.818;2023-03-14T00:20:08;94224;;;8.3;81.3
77469;BME280;66567;50.272;12.818;2023-03-14T00:22:05;94226;;;8.3;81.6
77469;BME280;66567;50.272;12.818;2023-03-14T00:24:06;94232;;;8.3;81.7
77469;BME280;66567;50.272;12.818;2023-03-14T00:26:08;94235;;;8.3;81.5
77469;BME280;66567;50.272;12.818;2023-03-14T00:28:05;94237;;;8.3;81.2
77469;BME280;66567;50.272;12.818;2023-03-14T00:30:07;94234;;;8.2;81.2
77469;BME280;66567;50.272;12.818;2023-03-14T00:32:05;94239;;;8.2;80.8
77469;BME280;66567;50.272;12.818;2023-03-14T00:34:05;94239;;;8.2;80.8
77469;BME280;66567;50.272;12.818;2023-03-14T00:36:07;94240;;;8.1;80.9
77469;BME280;66567;50.272;12.818;2023-03-14T00:38:05;94238;;;8.1;81.3
77469;BME280;66567;50.272;12.818;2023-03-14T00:40:07;94232;;;8.1;80.8
77469;BME280;66567;50.272;12.818;2023-03-14T00:42:05;94225;;;8.0;80.3
77469;BME280;66567;50.272;12.818;2023-03-14T00:44:05;94222;;;8.0;80.4
77469;BME280;66567;50.272;12.818;2023-03-14T00:46:06;94213;;;8.0;80.3
77469;BME280;66567;50.272;12.818;2023-03-14T00:48:05;94204;;;7.9;79.8
77469;BME280;66567;50.272;12.818;2023-03-14T00:50:06;94201;;;7.9;80.2
77469;BME280;66567;50.272;12.818;2023-03-14T00:52:05;94196;;;7.8;79.9
77469;BME280;66567;50.272;12.818;2023-03-14T00:54:05;94201;;;7.8;79.2
77469;BME280;66567;50.272;12.818;2023-03-14T00:56:07;94212;;;7.8;79.3
77469;BME280;66567;50.272;12.818;2023-03-14T00:58:05;94214;;;7.7;79.8
77469;BME280;66567;50.272;12.818;2023-03-14T01:00:08;94206;;;7.7;79.3
77469;BME280;66567;50.272;12.818;2023-03-14T01:02:05;94200;;;7.6;79.0
77469;BME280;66567;50.272;12.818;2023-03-14T01:04:05;94198;;;7.6;79.1
77469;BME280;66567;50.272;12.818;2023-03-14T01:06:09;94205;;;7.6;79.3
77469;BME280;66567;50.272;12.818;2023-03-14T01:08:06;94209;;;7.5;79.4
77469;BME280;66567;50.272;12.818;2023-03-14T01:10:06;94218;;;7.5;79.8
77469;BME280;66567;50.272;12.818;2023-03-14T01:12:05;94224;;;7.5;79.9
77469;BME280;66567;50.272;12.818;2023-03-14T01:14:05;94227;;;7.4;80.0
77469;BME280;66567;50.272;12.818;2023-03-14T01:16:07;94223;;;7.4;80.5
77469;BME280;66567;50.272;12.818;2023-03-14T01:18:05;94221;;;7.4;80.1
77469;BME280;66567;50.272;12.818;2023-03-14T01:20:10;94218;;;7.4;80.4
77469;BME280;66567;50.272;12.818;2023-03-14T01:22:05;94214;;;7.4;80.5
77469;BME280;66567;50.272;12.818;2023-03-14T01:24:06;94211;;;7.4;80.9
77469;BME280;66567;50.272;12.818;2023-03-14T01:26:08;94208;;;7.4;81.9
77469;BME280;66567;50.272;12.818;2023-03-14T01:28:05;94198;;;7.4;82.6
77469;BME280;66567;50.272;12.818;2023-03-14T01:30:06;94197;;;7.4;82.9
77469;BME280;66567;50.272;12.818;2023-03-14T01:32:05;94203;;;7.5;83.3
77469;BME280;66567;50.272;12.818;2023-03-14T01:34:05;94203;;;7.6;83.2
77469;BME280;66567;50.272;12.818;2023-03-14T01:36:06;94204;;;7.6;83.5
77469;BME280;66567;50.272;12.818;2023-03-14T01:38:05;94201;;;7.7;83.3
77469;BME280;66567;50.272;12.818;2023-03-14T01:40:06;94203;;;7.7;83.5
77469;BME280;66567;50.272;12.818;2023-03-14T01:42:05;94203;;;7.8;83.5
77469;BME280;66567;50.272;12.818;2023-03-14T01:44:08;94197;;;7.8;83.6
77469;BME280;66567;50.272;12.818;2023-03-14T01:48:05;94196;;;7.9;83.2
77469;BME280;66567;50.272;12.818;2023-03-14T01:50:08;94192;;;7.9;83.1
77469;BME280;66567;50.272;12.818;2023-03-14T01:52:10;94189;;;7.9;83.2
77469;BME280;66567;50.272;12.818;2023-03-14T01:54:13;94183;;;7.9;82.9
77469;BME280;66567;50.272;12.818;2023-03-14T01:56:06;94179;;;7.9;82.9
77469;BME280;66567;50.272;12.818;2023-03-14T01:58:05;94174;;;7.9;82.8
77469;BME280;66567;50.272;12.818;2023-03-14T02:00:15;94169;;;7.9;82.7
77469;BME280;66567;50.272;12.818;2023-03-14T02:02:07;94169;;;8.0;82.6
77469;BME280;66567;50.272;12.818;2023-03-14T02:04:05;94168;;;8.0;82.5
77469;BME280;66567;50.272;12.818;2023-03-14T02:06:06;94165;;;8.0;82.4
77469;BME280;66567;50.272;12.818;2023-03-14T02:08:07;94160;;;8.0;82.4
77469;BME280;66567;50.272;12.818;2023-03-14T02:10:05;94155;;;8.0;82.3
77469;BME280;66567;50.272;12.818;2023-03-14T02:12:06;94153;;;8.0;82.1
77469;BME280;66567;50.272;12.818;2023-03-14T02:14:05;94148;;;8.0;82.2
77469;BME280;66567;50.272;12.818;2023-03-14T02:16:06;94144;;;8.0;82.2
77469;BME280;66567;50.272;12.818;2023-03-14T02:18:05;94138;;;8.0;82.1
77469;BME280;66567;50.272;12.818;2023-03-14T02:20:11;94139;;;8.0;82.1
77469;BME280;66567;50.272;12.818;2023-03-14T02:22:09;94145;;;8.0;82.0
77469;BME280;66567;50.272;12.818;2023-03-14T02:24:12;94144;;;8.0;82.3
77469;BME280;66567;50.272;12.818;2023-03-14T02:26:10;94136;;;8.0;82.4
77469;BME280;66567;50.272;12.818;2023-03-14T02:28:05;94130;;;8.0;82.3
77469;BME280;66567;50.272;12.818;2023-03-14T02:32:06;94121;;;8.0;82.1
77469;BME280;66567;50.272;12.818;2023-03-14T02:34:05;94124;;;8.0;82.1
77469;BME280;66567;50.272;12.818;2023-03-14T02:36:07;94120;;;8.0;82.0
77469;BME280;66567;50.272;12.818;2023-03-14T02:38:15;94110;;;8.0;81.9
77469;BME280;66567;50.272;12.818;2023-03-14T02:40:06;94106;;;8.0;81.8
77469;BME280;66567;50.272;12.818;2023-03-14T02:42:05;94107;;;8.0;81.8
77469;BME280;66567;50.272;12.818;2023-03-14T02:44:05;94103;;;8.0;81.7
77469;BME280;66567;50.272;12.818;2023-03-14T02:46:05;94101;;;8.0;81.6
77469;BME280;66567;50.272;12.818;2023-03-14T02:48:09;94104;;;8.0;81.5
77469;BME280;66567;50.272;12.818;2023-03-14T02:50:10;94108;;;8.0;81.4
77469;BME280;66567;50.272;12.818;2023-03-14T02:52:06;94112;;;8.0;81.3
77469;BME280;66567;50.272;12.818;2023-03-14T02:54:05;94110;;;8.0;81.2
77469;BME280;66567;50.272;12.818;2023-03-14T02:56:06;94108;;;8.0;81.2
77469;BME280;66567;50.272;12.818;2023-03-14T02:58:05;94110;;;8.0;81.0
77469;BME280;66567;50.272;12.818;2023-03-14T03:00:06;94111;;;7.9;81.0
77469;BME280;66567;50.272;12.818;2023-03-14T03:02:05;94106;;;7.9;80.9
77469;BME280;66567;50.272;12.818;2023-03-14T03:04:05;94104;;;7.9;80.8
77469;BME280;66567;50.272;12.818;2023-03-14T03:06:05;94107;;;7.9;80.8
77469;BME280;66567;50.272;12.818;2023-03-14T03:08:05;94108;;;7.9;81.0
77469;BME280;66567;50.272;12.818;2023-03-14T03:10:06;94105;;;7.8;80.9
77469;BME280;66567;50.272;12.818;2023-03-14T03:12:05;94106;;;7.8;81.0
77469;BME280;66567;50.272;12.818;2023-03-14T03:14:05;94103;;;7.8;81.0
77469;BME280;66567;50.272;12.818;2023-03-14T03:16:05;94102;;;7.8;81.0
77469;BME280;66567;50.272;12.818;2023-03-14T03:18:05;94104;;;7.9;80.9
77469;BME280;66567;50.272;12.818;2023-03-14T03:20:08;94104;;;7.9;80.8
77469;BME280;66567;50.272;12.818;2023-03-14T03:22:05;94104;;;7.9;80.9
77469;BME280;66567;50.272;12.818;2023-03-14T03:24:06;94104;;;7.9;81.0
77469;BME280;66567;50.272;12.818;2023-03-14T03:26:05;94099;;;7.9;80.9
77469;BME280;66567;50.272;12.818;2023-03-14T03:28:07;94099;;;7.9;80.9
77469;BME280;66567;50.272;12.818;2023-03-14T03:30:06;94096;;;7.9;80.9
77469;BME280;66567;50.272;12.818;2023-03-14T03:32:05;94094;;;7.9;80.9
77469;BME280;66567;50.272;12.818;2023-03-14T03:34:05;94092;;;7.9;81.0
77469;BME280;66567;50.272;12.818;2023-03-14T03:36:06;94091;;;7.9;81.0
77469;BME280;66567;50.272;12.818;2023-03-14T03:38:05;94084;;;7.9;81.0
77469;BME280;66567;50.272;12.818;2023-03-14T03:40:06;94080;;;7.9;81.0
77469;BME280;66567;50.272;12.818;2023-03-14T03:42:05;94075;;;7.9;80.9
77469;BME280;66567;50.272;12.818;2023-03-14T03:44:05;94077;;;8.0;80.9
77469;BME280;66567;50.272;12.818;2023-03-14T03:46:06;94079;;;8.0;80.8
77469;BME280;66567;50.272;12.818;2023-03-14T03:48:05;94083;;;8.0;80.8
77469;BME280;66567;50.272;12.818;2023-03-14T03:50:05;94082;;;8.0;80.8
77469;BME280;66567;50.272;12.818;2023-03-14T03:52:05;94079;;;8.0;80.8
77469;BME280;66567;50.272;12.818;2023-03-14T03:54:05;94076;;;8.0;80.7
77469;BME280;66567;50.272;12.818;2023-03-14T03:56:06;94076;;;8.0;80.8
77469;BME280;66567;50.272;12.818;2023-03-14T03:58:05;94073;;;8.0;80.7
77469;BME280;66567;50.272;12.818;2023-03-14T04:00:06;94067;;;8.0;80.6
77469;BME280;66567;50.272;12.818;2023-03-14T04:02:05;94059;;;8.0;80.5
77469;BME280;66567;50.272;12.818;2023-03-14T04:04:05;94056;;;8.0;80.4
77469;BME280;66567;50.272;12.818;2023-03-14T04:06:07;94054;;;8.0;80.5
77469;BME280;66567;50.272;12.818;2023-03-14T04:08:05;94053;;;8.0;80.5
77469;BME280;66567;50.272;12.818;2023-03-14T04:10:05;94054;;;8.1;80.3
77469;BME280;66567;50.272;12.818;2023-03-14T04:12:05;94055;;;8.1;80.2
77469;BME280;66567;50.272;12.818;2023-03-14T04:14:05;94053;;;8.1;80.2
77469;BME280;66567;50.272;12.818;2023-03-14T04:16:14;94058;;;8.1;80.2
77469;BME280;66567;50.272;12.818;2023-03-14T04:18:05;94060;;;8.1;80.1
77469;BME280;66567;50.272;12.818;2023-03-14T04:20:10;94060;;;8.1;80.0
77469;BME280;66567;50.272;12.818;2023-03-14T04:22:05;94058;;;8.1;80.0
77469;BME280;66567;50.272;12.818;2023-03-14T04:24:05;94052;;;8.1;80.0
77469;BME280;66567;50.272;12.818;2023-03-14T04:26:05;94051;;;8.1;79.9
77469;BME280;66567;50.272;12.818;2023-03-14T04:28:05;94050;;;8.1;79.8
77469;BME280;66567;50.272;12.818;2023-03-14T04:30:06;94048;;;8.1;79.8
77469;BME280;66567;50.272;12.818;2023-03-14T04:32:05;94043;;;8.1;79.7
77469;BME280;66567;50.272;12.818;2023-03-14T04:34:05;94039;;;8.1;79.7
77469;BME280;66567;50.272;12.818;2023-03-14T04:36:06;94032;;;8.1;79.6
77469;BME280;66567;50.272;12.818;2023-03-14T04:38:05;94032;;;8.1;79.7
77469;BME280;66567;50.272;12.818;2023-03-14T04:40:06;94034;;;8.1;79.6
77469;BME280;66567;50.272;12.818;2023-03-14T04:42:05;94031;;;8.1;79.6
77469;BME280;66567;50.272;12.818;2023-03-14T04:44:05;94030;;;8.1;79.6
77469;BME280;66567;50.272;12.818;2023-03-14T04:46:05;94031;;;8.1;79.6
77469;BME280;66567;50.272;12.818;2023-03-14T04:48:05;94029;;;8.1;79.5
77469;BME280;66567;50.272;12.818;2023-03-14T04:50:05;94023;;;8.1;79.4
77469;BME280;66567;50.272;12.818;2023-03-14T04:52:05;94017;;;8.1;79.4
77469;BME280;66567;50.272;12.818;2023-03-14T04:54:05;94011;;;8.1;79.4
77469;BME280;66567;50.272;12.818;2023-03-14T04:56:06;94011;;;8.1;79.4
77469;BME280;66567;50.272;12.818;2023-03-14T04:58:05;94008;;;8.1;79.3
77469;BME280;66567;50.272;12.818;2023-03-14T05:00:07;94001;;;8.1;79.3
77469;BME280;66567;50.272;12.818;2023-03-14T05:02:05;93999;;;8.1;79.2
77469;BME280;66567;50.272;12.818;2023-03-14T05:04:05;93999;;;8.1;79.2
77469;BME280;66567;50.272;12.818;2023-03-14T05:06:05;93993;;;8.1;79.3
77469;BME280;66567;50.272;12.818;2023-03-14T05:08:05;93987;;;8.1;79.1
77469;BME280;66567;50.272;12.818;2023-03-14T05:10:05;93984;;;8.1;79.2
77469;BME280;66567;50.272;12.818;2023-03-14T05:12:06;93981;;;8.1;79.2
77469;BME280;66567;50.272;12.818;2023-03-14T05:14:05;93976;;;8.1;79.0
77469;BME280;66567;50.272;12.818;2023-03-14T05:16:07;93973;;;8.1;79.0
77469;BME280;66567;50.272;12.818;2023-03-14T05:18:05;93970;;;8.1;79.0
77469;BME280;66567;50.272;12.818;2023-03-14T05:20:08;93959;;;8.1;78.9
77469;BME280;66567;50.272;12.818;2023-03-14T05:22:05;93957;;;8.1;78.8
77469;BME280;66567;50.272;12.818;2023-03-14T05:24:05;93959;;;8.1;78.7
77469;BME280;66567;50.272;12.818;2023-03-14T05:26:05;93957;;;8.1;78.8
77469;BME280;66567;50.272;12.818;2023-03-14T05:28:05;93952;;;8.1;78.7
77469;BME280;66567;50.272;12.818;2023-03-14T05:30:06;93951;;;8.1;78.8
77469;BME280;66567;50.272;12.818;2023-03-14T05:32:05;93954;;;8.1;78.7
77469;BME280;66567;50.272;12.818;2023-03-14T05:34:05;93957;;;8.1;78.8
77469;BME280;66567;50.272;12.818;2023-03-14T05:36:05;93960;;;8.1;78.7
77469;BME280;66567;50.272;12.818;2023-03-14T05:38:05;93961;;;8.1;78.7
77469;BME280;66567;50.272;12.818;2023-03-14T05:40:06;93963;;;8.1;78.8
77469;BME280;66567;50.272;12.818;2023-03-14T05:42:05;93963;;;8.1;78.8
77469;BME280;66567;50.272;12.818;2023-03-14T05:44:05;93964;;;8.1;78.8
77469;BME280;66567;50.272;12.818;2023-03-14T05:46:05;93965;;;8.1;78.7
77469;BME280;66567;50.272;12.818;2023-03-14T05:48:05;93968;;;8.1;78.7
77469;BME280;66567;50.272;12.818;2023-03-14T05:50:06;93969;;;8.1;78.7
77469;BME280;66567;50.272;12.818;2023-03-14T05:52:05;93964;;;8.1;78.7
77469;BME280;66567;50.272;12.818;2023-03-14T05:54:05;93965;;;8.1;78.7
77469;BME280;66567;50.272;12.818;2023-03-14T05:56:06;93969;;;8.1;78.7
77469;BME280;66567;50.272;12.818;2023-03-14T05:58:05;93971;;;8.1;78.7
77469;BME280;66567;50.272;12.818;2023-03-14T06:00:06;93968;;;8.1;78.7
77469;BME280;66567;50.272;12.818;2023-03-14T06:02:05;93970;;;8.1;78.7
77469;BME280;66567;50.272;12.818;2023-03-14T06:04:05;93973;;;8.1;78.5
77469;BME280;66567;50.272;12.818;2023-03-14T06:06:05;93968;;;8.1;78.6
77469;BME280;66567;50.272;12.818;2023-03-14T06:08:05;93969;;;8.1;78.4
77469;BME280;66567;50.272;12.818;2023-03-14T06:10:06;93965;;;8.1;78.4
77469;BME280;66567;50.272;12.818;2023-03-14T06:12:05;93960;;;8.1;78.3
77469;BME280;66567;50.272;12.818;2023-03-14T06:14:05;93955;;;8.1;78.1
77469;BME280;66567;50.272;12.818;2023-03-14T06:16:06;93956;;;8.2;78.3
77469;BME280;66567;50.272;12.818;2023-03-14T06:18:05;93955;;;8.2;78.0
77469;BME280;66567;50.272;12.818;2023-03-14T06:20:05;93957;;;8.2;78.1
77469;BME280;66567;50.272;12.818;2023-03-14T06:22:05;93952;;;8.2;78.0
77469;BME280;66567;50.272;12.818;2023-03-14T06:24:05;93948;;;8.2;77.8
77469;BME280;66567;50.272;12.818;2023-03-14T06:26:06;93945;;;8.2;77.8
77469;BME280;66567;50.272;12.818;2023-03-14T06:28:05;93943;;;8.2;77.8
77469;BME280;66567;50.272;12.818;2023-03-14T06:30:06;93938;;;8.2;77.7
77469;BME280;66567;50.272;12.818;2023-03-14T06:32:05;93938;;;8.2;77.6
77469;BME280;66567;50.272;12.818;2023-03-14T06:34:05;93942;;;8.2;77.6
77469;BME280;66567;50.272;12.818;2023-03-14T06:36:06;93947;;;8.2;77.4
77469;BME280;66567;50.272;12.818;2023-03-14T06:38:05;93950;;;8.2;77.3
77469;BME280;66567;50.272;12.818;2023-03-14T06:40:07;93953;;;8.2;77.3
77469;BME280;66567;50.272;12.818;2023-03-14T06:42:05;93953;;;8.3;77.2
77469;BME280;66567;50.272;12.818;2023-03-14T06:44:05;93954;;;8.3;77.2
77469;BME280;66567;50.272;12.818;2023-03-14T06:46:05;93953;;;8.3;76.9
77469;BME280;66567;50.272;12.818;2023-03-14T06:48:05;93954;;;8.3;76.8
77469;BME280;66567;50.272;12.818;2023-03-14T06:50:06;93953;;;8.3;76.9
77469;BME280;66567;50.272;12.818;2023-03-14T06:52:05;93956;;;8.3;76.8
77469;BME280;66567;50.272;12.818;2023-03-14T06:54:05;93958;;;8.3;76.7
77469;BME280;66567;50.272;12.818;2023-03-14T06:56:06;93959;;;8.3;76.8
77469;BME280;66567;50.272;12.818;2023-03-14T06:58:07;93959;;;8.3;76.7
77469;BME280;66567;50.272;12.818;2023-03-14T07:00:08;93965;;;8.3;76.7
77469;BME280;66567;50.272;12.818;2023-03-14T07:02:09;93964;;;8.3;76.7
77469;BME280;66567;50.272;12.818;2023-03-14T07:04:05;93966;;;8.3;76.8
77469;BME280;66567;50.272;12.818;2023-03-14T07:06:05;93968;;;8.3;76.6
77469;BME280;66567;50.272;12.818;2023-03-14T07:08:06;93966;;;8.3;76.6
77469;BME280;66567;50.272;12.818;2023-03-14T07:10:05;93968;;;8.3;76.5
77469;BME280;66567;50.272;12.818;2023-03-14T07:12:05;93968;;;8.3;76.5
77469;BME280;66567;50.272;12.818;2023-03-14T07:14:05;93972;;;8.3;76.4
77469;BME280;66567;50.272;12.818;2023-03-14T07:16:06;93975;;;8.3;76.6
77469;BME280;66567;50.272;12.818;2023-03-14T07:18:05;93978;;;8.3;76.7
77469;BME280;66567;50.272;12.818;2023-03-14T07:20:07;93979;;;8.3;76.8
77469;BME280;66567;50.272;12.818;2023-03-14T07:22:05;93978;;;8.3;76.7
77469;BME280;66567;50.272;12.818;2023-03-14T07:24:05;93979;;;8.3;76.9
77469;BME280;66567;50.272;12.818;2023-03-14T07:26:06;93986;;;8.3;77.0
77469;BME280;66567;50.272;12.818;2023-03-14T07:28:05;93991;;;8.3;77.0
77469;BME280;66567;50.272;12.818;2023-03-14T07:30:06;93993;;;8.4;76.8
77469;BME280;66567;50.272;12.818;2023-03-14T07:32:05;93994;;;8.4;76.7
77469;BME280;66567;50.272;12.818;2023-03-14T07:34:05;93998;;;8.4;76.7
77469;BME280;66567;50.272;12.818;2023-03-14T07:36:06;94000;;;8.4;76.6
77469;BME280;66567;50.272;12.818;2023-03-14T07:38:05;94000;;;8.5;76.5
77469;BME280;66567;50.272;12.818;2023-03-14T07:40:07;93998;;;8.5;76.4
77469;BME280;66567;50.272;12.818;2023-03-14T07:42:05;93992;;;8.5;76.3
77469;BME280;66567;50.272;12.818;2023-03-14T07:44:05;93992;;;8.6;76.0
77469;BME280;66567;50.272;12.818;2023-03-14T07:46:05;93991;;;8.6;76.0
77469;BME280;66567;50.272;12.818;2023-03-14T07:48:05;93990;;;8.6;75.8
77469;BME280;66567;50.272;12.818;2023-03-14T07:50:05;93992;;;8.7;75.5
77469;BME280;66567;50.272;12.818;2023-03-14T07:52:05;93992;;;8.8;75.4
77469;BME280;66567;50.272;12.818;2023-03-14T07:54:05;93991;;;8.8;75.3
77469;BME280;66567;50.272;12.818;2023-03-14T07:56:05;93983;;;8.9;75.3
77469;BME280;66567;50.272;12.818;2023-03-14T07:58:06;93981;;;8.9;75.0
77469;BME280;66567;50.272;12.818;2023-03-14T08:00:06;93982;;;9.0;74.8
77469;BME280;66567;50.272;12.818;2023-03-14T08:02:11;93979;;;9.0;74.6
77469;BME280;66567;50.272;12.818;2023-03-14T08:04:05;93978;;;9.0;74.8
77469;BME280;66567;50.272;12.818;2023-03-14T08:06:05;93973;;;9.1;74.1
77469;BME280;66567;50.272;12.818;2023-03-14T08:08:05;93972;;;9.1;73.6
77469;BME280;66567;50.272;12.818;2023-03-14T08:10:06;93967;;;9.1;73.4
77469;BME280;66567;50.272;12.818;2023-03-14T08:12:05;93967;;;9.1;73.3
77469;BME280;66567;50.272;12.818;2023-03-14T08:14:05;93968;;;9.1;73.5
77469;BME280;66567;50.272;12.818;2023-03-14T08:16:05;93964;;;9.1;73.6
77469;BME280;66567;50.272;12.818;2023-03-14T08:18:05;93966;;;9.2;73.4
77469;BME280;66567;50.272;12.818;2023-03-14T08:20:08;93967;;;9.3;73.2
77469;BME280;66567;50.272;12.818;2023-03-14T08:22:05;93967;;;9.3;73.1
77469;BME280;66567;50.272;12.818;2023-03-14T08:24:06;93960;;;9.4;72.7
77469;BME280;66567;50.272;12.818;2023-03-14T08:26:06;93961;;;9.4;72.7
77469;BME280;66567;50.272;12.818;2023-03-14T08:28:05;93959;;;9.5;72.4
77469;BME280;66567;50.272;12.818;2023-03-14T08:30:06;93958;;;9.6;72.3
77469;BME280;66567;50.272;12.818;2023-03-14T08:32:05;93954;;;9.6;72.0
77469;BME280;66567;50.272;12.818;2023-03-14T08:34:06;93949;;;9.7;72.1
77469;BME280;66567;50.272;12.818;2023-03-14T08:36:05;93948;;;9.7;71.8
77469;BME280;66567;50.272;12.818;2023-03-14T08:38:05;93954;;;9.8;71.3
77469;BME280;66567;50.272;12.818;2023-03-14T08:40:06;93951;;;9.8;71.0
77469;BME280;66567;50.272;12.818;2023-03-14T08:42:05;93957;;;9.9;71.1
77469;BME280;66567;50.272;12.818;2023-03-14T08:44:06;93960;;;9.9;70.7
77469;BME280;66567;50.272;12.818;2023-03-14T08:46:05;93967;;;9.9;70.2
77469;BME280;66567;50.272;12.818;2023-03-14T08:48:05;93966;;;9.8;70.1
77469;BME280;66567;50.272;12.818;2023-03-14T08:50:06;93962;;;9.8;70.4
77469;BME280;66567;50.272;12.818;2023-03-14T08:52:05;93964;;;9.8;70.0
77469;BME280;66567;50.272;12.818;2023-03-14T08:54:05;93968;;;9.7;70.0
77469;BME280;66567;50.272;12.818;2023-03-14T08:56:06;93969;;;9.7;70.2
77469;BME280;66567;50.272;12.818;2023-03-14T08:58:05;93974;;;9.7;69.9
77469;BME280;66567;50.272;12.818;2023-03-14T09:00:10;93972;;;9.6;70.3
77469;BME280;66567;50.272;12.818;2023-03-14T09:02:05;93974;;;9.6;70.1
77469;BME280;66567;50.272;12.818;2023-03-14T09:04:06;93971;;;9.6;70.2
77469;BME280;66567;50.272;12.818;2023-03-14T09:06:07;93970;;;9.6;70.1
77469;BME280;66567;50.272;12.818;2023-03-14T09:08:05;93968;;;9.5;69.8
77469;BME280;66567;50.272;12.818;2023-03-14T09:10:06;93966;;;9.6;69.7
77469;BME280;66567;50.272;12.818;2023-03-14T09:12:05;93967;;;9.6;69.3
77469;BME280;66567;50.272;12.818;2023-03-14T09:14:05;93967;;;9.6;68.7
77469;BME280;66567;50.272;12.818;2023-03-14T09:16:06;93967;;;9.6;68.5
77469;BME280;66567;50.272;12.818;2023-03-14T09:18:05;93972;;;9.6;67.9
77469;BME280;66567;50.272;12.818;2023-03-14T09:20:07;93977;;;9.6;68.3
77469;BME280;66567;50.272;12.818;2023-03-14T09:22:05;93978;;;9.7;68.9
77469;BME280;66567;50.272;12.818;2023-03-14T09:24:06;93973;;;9.7;69.0
77469;BME280;66567;50.272;12.818;2023-03-14T09:26:06;93974;;;9.8;67.6
77469;BME280;66567;50.272;12.818;2023-03-14T09:28:05;93974;;;9.8;68.0
77469;BME280;66567;50.272;12.818;2023-03-14T09:30:06;93975;;;9.9;68.1
77469;BME280;66567;50.272;12.818;2023-03-14T09:32:05;93976;;;9.9;67.7
77469;BME280;66567;50.272;12.818;2023-03-14T09:34:05;93970;;;10.0;67.8
77469;BME280;66567;50.272;12.818;2023-03-14T09:36:06;93969;;;10.0;67.5
77469;BME280;66567;50.272;12.818;2023-03-14T09:38:05;93971;;;10.0;67.9
77469;BME280;66567;50.272;12.818;2023-03-14T09:40:12;93973;;;10.0;67.7
77469;BME280;66567;50.272;12.818;2023-03-14T09:42:06;93969;;;10.0;67.5
77469;BME280;66567;50.272;12.818;2023-03-14T09:44:18;93971;;;10.0;67.3
77469;BME280;66567;50.272;12.818;2023-03-14T09:46:05;93970;;;10.0;67.5
77469;BME280;66567;50.272;12.818;2023-03-14T09:48:06;93969;;;10.0;67.8
77469;BME280;66567;50.272;12.818;2023-03-14T09:50:13;93968;;;9.9;67.5
77469;BME280;66567;50.272;12.818;2023-03-14T09:52:17;93967;;;9.9;67.0
77469;BME280;66567;50.272;12.818;2023-03-14T09:54:05;93969;;;9.9;66.9
77469;BME280;66567;50.272;12.818;2023-03-14T09:56:21;93973;;;9.8;67.3
77469;BME280;66567;50.272;12.818;2023-03-14T09:58:10;93973;;;9.8;67.7
77469;BME280;66567;50.272;12.818;2023-03-14T10:04:10;93970;;;9.8;67.4
77469;BME280;66567;50.272;12.818;2023-03-14T10:06:11;93967;;;9.8;67.3
77469;BME280;66567;50.272;12.818;2023-03-14T10:08:05;93966;;;9.9;67.6
77469;BME280;66567;50.272;12.818;2023-03-14T10:10:15;93965;;;9.9;67.3
77469;BME280;66567;50.272;12.818;2023-03-14T10:12:07;93970;;;9.9;66.8
77469;BME280;66567;50.272;12.818;2023-03-14T10:14:08;93971;;;10.0;66.5
77469;BME280;66567;50.272;12.818;2023-03-14T10:16:06;93969;;;10.0;66.6
77469;BME280;66567;50.272;12.818;2023-03-14T10:18:12;93971;;;10.0;66.6
77469;BME280;66567;50.272;12.818;2023-03-14T10:20:06;93970;;;10.0;66.4
77469;BME280;66567;50.272;12.818;2023-03-14T10:22:11;93971;;;10.0;66.5
77469;BME280;66567;50.272;12.818;2023-03-14T10:24:18;93967;;;10.0;66.3
77469;BME280;66567;50.272;12.818;2023-03-14T10:26:14;93964;;;10.0;66.3
77469;BME280;66567;50.272;12.818;2023-03-14T10:28:11;93965;;;10.0;66.1
77469;BME280;66567;50.272;12.818;2023-03-14T10:30:07;93961;;;10.0;66.8
77469;BME280;66567;50.272;12.818;2023-03-14T10:32:10;93961;;;10.0;66.0
77469;BME280;66567;50.272;12.818;2023-03-14T10:34:09;93962;;;10.0;66.0
77469;BME280;66567;50.272;12.818;2023-03-14T10:36:15;93965;;;10.0;65.9
77469;BME280;66567;50.272;12.818;2023-03-14T10:38:12;93968;;;10.0;65.8
77469;BME280;66567;50.272;12.818;2023-03-14T10:40:12;93971;;;10.0;65.5
77469;BME280;66567;50.272;12.818;2023-03-14T10:42:20;93971;;;10.0;65.8
77469;BME280;66567;50.272;12.818;2023-03-14T10:44:05;93980;;;10.0;65.9
77469;BME280;66567;50.272;12.818;2023-03-14T10:46:11;93983;;;10.0;65.4
77469;BME280;66567;50.272;12.818;2023-03-14T10:50:22;93988;;;10.1;65.1
77469;BME280;66567;50.272;12.818;2023-03-14T10:52:13;93989;;;10.1;65.4
77469;BME280;66567;50.272;12.818;2023-03-14T10:54:18;93992;;;10.1;64.9
77469;BME280;66567;50.272;12.818;2023-03-14T10:56:06;93993;;;10.1;64.5
77469;BME280;66567;50.272;12.818;2023-03-14T10:58:18;93992;;;10.1;65.0
77469;BME280;66567;50.272;12.818;2023-03-14T11:00:16;93990;;;10.0;64.8
77469;BME280;66567;50.272;12.818;2023-03-14T11:02:22;93996;;;10.0;65.0
77469;BME280;66567;50.272;12.818;2023-03-14T11:04:33;93999;;;10.0;65.0
77469;BME280;66567;50.272;12.818;2023-03-14T11:06:18;94003;;;10.0;65.8
77469;BME280;66567;50.272;12.818;2023-03-14T11:08:19;94004;;;10.0;65.7
77469;BME280;66567;50.272;12.818;2023-03-14T11:16:20;94013;;;9.9;67.6
77469;BME280;66567;50.272;12.818;2023-03-14T11:20:21;94010;;;9.9;68.7
77469;BME280;66567;50.272;12.818;2023-03-14T11:24:33;94005;;;9.9;69.1
77469;BME280;66567;50.272;12.818;2023-03-14T11:28:14;94000;;;9.9;68.8
77469;BME280;66567;50.272;12.818;2023-03-14T11:32:16;93997;;;9.9;69.4
77469;BME280;66567;50.272;12.818;2023-03-14T11:36:08;93994;;;9.9;69.5
77469;BME280;66567;50.272;12.818;2023-03-14T11:38:12;93999;;;10.0;69.4
77469;BME280;66567;50.272;12.818;2023-03-14T11:40:14;94002;;;10.0;70.3
77469;BME280;66567;50.272;12.818;2023-03-14T11:42:10;94003;;;10.0;69.9
77469;BME280;66567;50.272;12.818;2023-03-14T11:44:27;94006;;;9.9;70.4